Time;durP1;ratioP1;P1;durP2;ratioP2;P2;SDS_P1;SDS_P2;PMS_P1;PMS_P2;Temp;Humidity;BMP_temperature;BMP_pressure;BME280_temperature;BME280_humidity;BME280_pressure;Samples;Min_cycle;Max_cycle;Signal;HPM_P1;HPM_P2
2022/09/11 00:00:38;;;;;;;3.53;3.23;;;;;;;;;;4954913;28;20288;-88
2022/09/11 00:03:05;;;;;;;3.70;3.13;;;;;;;;;;4955392;29;20268;-89
2022/09/11 00:05:32;;;;;;;3.70;3.40;;;;;;;;;;4954652;28;20787;-88
2022/09/11 00:08:01;;;;;;;3.30;3.10;;;;;;;;;;4955119;29;20688;-88
2022/09/11 00:10:28;;;;;;;3.80;3.50;;;;;;;;;;4955068;28;20240;-89
2022/09/11 00:12:55;;;;;;;3.63;3.10;;;;;;;;;;4955468;29;20213;-89
2022/09/11 00:15:22;;;;;;;5.20;3.40;;;;;;;;;;4954602;28;20676;-88
2022/09/11 00:17:50;;;;;;;3.97;3.53;;;;;;;;;;4954919;29;20701;-88
2022/09/11 00:20:17;;;;;;;4.37;3.90;;;;;;;;;;4954622;28;20257;-88
2022/09/11 00:22:46;;;;;;;5.47;3.70;;;;;;;;;;4955304;29;20206;-89
2022/09/11 00:25:14;;;;;;;5.23;3.53;;;;;;;;;;4955058;28;20288;-88
2022/09/11 00:27:41;;;;;;;3.87;3.57;;;;;;;;;;4955293;29;20218;-89
2022/09/11 00:30:08;;;;;;;5.83;3.80;;;;;;;;;;4954549;28;20248;-89
2022/09/11 00:32:35;;;;;;;3.80;3.50;;;;;;;;;;4955101;29;20209;-88
2022/09/11 00:35:03;;;;;;;4.70;3.60;;;;;;;;;;4954047;28;20241;-88
2022/09/11 00:37:30;;;;;;;4.10;3.67;;;;;;;;;;4955154;29;20205;-89
2022/09/11 00:39:57;;;;;;;3.70;3.40;;;;;;;;;;4954817;28;20292;-88
2022/09/11 00:42:25;;;;;;;4.40;3.67;;;;;;;;;;4954594;29;20213;-88
2022/09/11 00:45:00;;;;;;;4.53;3.80;;;;;;;;;;4954181;28;20295;-88
2022/09/11 00:47:27;;;;;;;3.90;3.60;;;;;;;;;;4954512;29;20204;-89
2022/09/11 00:49:55;;;;;;;4.93;3.60;;;;;;;;;;4954276;28;20284;-88
2022/09/11 00:52:26;;;;;;;3.97;3.60;;;;;;;;;;4954189;29;20677;-88
2022/09/11 00:54:56;;;;;;;4.40;4.00;;;;;;;;;;4953345;28;20241;-88
2022/09/11 00:57:23;;;;;;;4.00;3.70;;;;;;;;;;4954368;29;20273;-89
2022/09/11 00:59:53;;;;;;;3.97;3.57;;;;;;;;;;4952725;28;20336;-88
2022/09/11 01:02:21;;;;;;;4.43;4.03;;;;;;;;;;4953877;29;20678;-88
2022/09/11 01:04:49;;;;;;;4.00;3.60;;;;;;;;;;4935752;29;20646;-89
2022/09/11 01:07:18;;;;;;;6.43;4.70;;;;;;;;;;4948524;28;20237;-88
2022/09/11 01:09:46;;;;;;;6.63;4.53;;;;;;;;;;4953773;28;20240;-88
2022/09/11 01:12:18;;;;;;;5.97;5.40;;;;;;;;;;4954066;28;20213;-89
2022/09/11 01:14:48;;;;;;;4.77;4.23;;;;;;;;;;4953786;28;20721;-88
2022/09/11 01:17:22;;;;;;;7.63;5.07;;;;;;;;;;4954471;28;20566;-89
2022/09/11 01:20:09;;;;;;;5.87;5.27;;;;;;;;;;4953929;28;20240;-88
2022/09/11 01:22:46;;;;;;;6.40;5.67;;;;;;;;;;4953896;28;20721;-88
2022/09/11 01:25:21;;;;;;;6.90;5.73;;;;;;;;;;4953708;28;20587;-89
2022/09/11 01:27:50;;;;;;;6.30;5.03;;;;;;;;;;4954326;29;20252;-88
2022/09/11 01:30:18;;;;;;;6.70;6.10;;;;;;;;;;4953509;28;20237;-88
2022/09/11 01:33:01;;;;;;;7.80;6.00;;;;;;;;;;4954160;29;20213;-88
2022/09/11 01:35:33;;;;;;;6.40;5.80;;;;;;;;;;4953526;28;20616;-88
2022/09/11 01:38:04;;;;;;;8.77;6.80;;;;;;;;;;4953911;29;20233;-88
2022/09/11 01:40:35;;;;;;;7.73;6.70;;;;;;;;;;4953587;28;20245;-88
2022/09/11 01:43:06;;;;;;;7.70;7.00;;;;;;;;;;4954032;29;20244;-88
2022/09/11 01:45:36;;;;;;;9.80;7.23;;;;;;;;;;4953400;28;20275;-88
2022/09/11 01:48:03;;;;;;;8.57;7.30;;;;;;;;;;4954123;29;20213;-88
2022/09/11 01:50:32;;;;;;;8.23;7.23;;;;;;;;;;4953530;28;20245;-88
2022/09/11 01:53:00;;;;;;;8.33;6.80;;;;;;;;;;4953649;29;20670;-88
2022/09/11 01:55:30;;;;;;;9.63;7.83;;;;;;;;;;4953322;28;20244;-89
2022/09/11 01:58:00;;;;;;;8.43;7.63;;;;;;;;;;4953923;29;20670;-88
2022/09/11 02:00:29;;;;;;;9.03;8.13;;;;;;;;;;4953228;28;20296;-88
2022/09/11 02:03:00;;;;;;;9.17;7.90;;;;;;;;;;4953861;29;20257;-88
2022/09/11 02:05:29;;;;;;;9.73;8.07;;;;;;;;;;4953302;28;20245;-88
2022/09/11 02:07:59;;;;;;;10.17;8.30;;;;;;;;;;4956263;29;20206;-88
2022/09/11 02:10:30;;;;;;;8.87;7.97;;;;;;;;;;4957074;28;20245;-88
2022/09/11 02:12:59;;;;;;;11.33;8.73;;;;;;;;;;4957162;29;20669;-88
2022/09/11 02:15:30;;;;;;;10.37;8.83;;;;;;;;;;4956660;28;20241;-88
2022/09/11 02:18:02;;;;;;;9.80;8.53;;;;;;;;;;4957318;29;20206;-88
2022/09/11 02:20:30;;;;;;;9.47;8.57;;;;;;;;;;4956695;28;20283;-88
2022/09/11 02:22:57;;;;;;;10.80;9.50;;;;;;;;;;4956871;29;20205;-88
2022/09/11 02:25:25;;;;;;;12.23;9.83;;;;;;;;;;4956274;28;20691;-88
2022/09/11 02:27:53;;;;;;;11.40;9.03;;;;;;;;;;4956950;29;20646;-89
2022/09/11 02:30:20;;;;;;;11.30;9.33;;;;;;;;;;4956983;28;20276;-89
2022/09/11 02:32:47;;;;;;;11.97;10.70;;;;;;;;;;4957150;29;20213;-88
2022/09/11 02:35:16;;;;;;;12.27;9.97;;;;;;;;;;4981750;23;20228;-86
2022/09/11 02:37:48;;;;;;;11.50;9.37;;;;;;;;;;5010131;28;20207;-83
2022/09/11 02:40:19;;;;;;;11.23;9.27;;;;;;;;;;5019414;28;20263;-83
2022/09/11 02:42:53;;;;;;;11.37;9.17;;;;;;;;;;5006460;28;20251;-86
2022/09/11 02:45:29;;;;;;;10.10;9.20;;;;;;;;;;4998085;28;20246;-86
2022/09/11 02:48:00;;;;;;;10.57;9.47;;;;;;;;;;4998445;28;20204;-86
2022/09/11 02:50:32;;;;;;;10.50;9.50;;;;;;;;;;4997962;28;20258;-86
2022/09/11 02:53:01;;;;;;;11.07;9.77;;;;;;;;;;4998035;28;20632;-86
2022/09/11 02:55:34;;;;;;;10.50;9.43;;;;;;;;;;4997159;28;20244;-86
2022/09/11 02:58:03;;;;;;;12.40;10.10;;;;;;;;;;4998436;28;20199;-86
2022/09/11 03:00:30;;;;;;;11.50;10.30;;;;;;;;;;4997786;28;20649;-85
2022/09/11 03:02:58;;;;;;;14.57;10.80;;;;;;;;;;4998216;28;20604;-86
2022/09/11 03:05:27;;;;;;;13.97;11.83;;;;;;;;;;4997290;28;20236;-86
2022/09/11 03:07:55;;;;;;;12.60;10.93;;;;;;;;;;4997903;28;20259;-85
2022/09/11 03:10:22;;;;;;;12.83;10.77;;;;;;;;;;4995503;28;20319;-86
2022/09/11 03:12:49;;;;;;;13.17;11.30;;;;;;;;;;4995704;28;20242;-86
2022/09/11 03:15:16;;;;;;;13.70;11.77;;;;;;;;;;4994948;28;20314;-85
2022/09/11 03:17:43;;;;;;;14.20;11.57;;;;;;;;;;4995374;28;20211;-85
2022/09/11 03:20:10;;;;;;;13.63;11.57;;;;;;;;;;4995140;28;20243;-85
2022/09/11 03:22:38;;;;;;;16.07;13.10;;;;;;;;;;4995749;28;20560;-86
2022/09/11 03:25:07;;;;;;;14.60;12.03;;;;;;;;;;4995097;28;20314;-86
2022/09/11 03:27:37;;;;;;;13.67;12.20;;;;;;;;;;4995632;28;20212;-87
2022/09/11 03:30:04;;;;;;;14.33;12.03;;;;;;;;;;4995444;28;20294;-86
2022/09/11 03:32:31;;;;;;;15.13;12.30;;;;;;;;;;4995516;28;20212;-86
2022/09/11 03:35:00;;;;;;;15.23;11.97;;;;;;;;;;4994967;28;20289;-83
2022/09/11 03:37:27;;;;;;;14.83;13.30;;;;;;;;;;4995442;28;20263;-86
2022/09/11 03:39:54;;;;;;;14.93;12.53;;;;;;;;;;4995097;28;20735;-86
2022/09/11 03:42:23;;;;;;;17.07;12.67;;;;;;;;;;4996260;28;20676;-86
2022/09/11 03:44:50;;;;;;;15.30;12.30;;;;;;;;;;5008436;28;20250;-83
2022/09/11 03:47:19;;;;;;;15.67;13.60;;;;;;;;;;4999278;28;20204;-87
2022/09/11 03:49:47;;;;;;;14.93;12.83;;;;;;;;;;4996060;28;20240;-86
2022/09/11 03:52:14;;;;;;;15.97;12.77;;;;;;;;;;4996407;28;20699;-86
2022/09/11 03:54:41;;;;;;;14.80;13.07;;;;;;;;;;4995433;28;20228;-87
2022/09/11 03:57:08;;;;;;;16.23;13.13;;;;;;;;;;4995280;28;20691;-86
2022/09/11 03:59:38;;;;;;;18.57;13.97;;;;;;;;;;4994839;28;20755;-87
2022/09/11 04:02:05;;;;;;;19.10;14.43;;;;;;;;;;4994802;28;20218;-86
2022/09/11 04:04:32;;;;;;;15.23;13.07;;;;;;;;;;4994582;28;20652;-86
2022/09/11 04:06:59;;;;;;;15.97;13.93;;;;;;;;;;4994768;28;20299;-86
2022/09/11 04:09:27;;;;;;;18.40;14.00;;;;;;;;;;4994206;28;20231;-86
2022/09/11 04:11:54;;;;;;;16.67;14.87;;;;;;;;;;4994534;28;20216;-86
2022/09/11 04:14:22;;;;;;;18.87;14.33;;;;;;;;;;4994057;28;20647;-87
2022/09/11 04:16:50;;;;;;;18.73;14.13;;;;;;;;;;4994672;28;20315;-86
2022/09/11 04:19:17;;;;;;;16.90;13.43;;;;;;;;;;4994434;28;20236;-86
2022/09/11 04:21:44;;;;;;;17.00;13.53;;;;;;;;;;4995320;28;20208;-86
2022/09/11 04:24:11;;;;;;;15.57;13.73;;;;;;;;;;4994742;28;20258;-86
2022/09/11 04:26:39;;;;;;;18.10;13.93;;;;;;;;;;4994922;28;20287;-86
2022/09/11 04:29:06;;;;;;;20.07;14.67;;;;;;;;;;4993529;28;20232;-86
2022/09/11 04:31:35;;;;;;;16.57;13.87;;;;;;;;;;4993909;28;20643;-86
2022/09/11 04:34:03;;;;;;;19.97;15.47;;;;;;;;;;4994556;28;20281;-86
2022/09/11 04:36:30;;;;;;;17.70;14.97;;;;;;;;;;4994278;28;20240;-86
2022/09/11 04:38:58;;;;;;;17.27;14.80;;;;;;;;;;4993961;28;20306;-86
2022/09/11 04:41:26;;;;;;;17.90;15.83;;;;;;;;;;4994447;28;20695;-86
2022/09/11 04:43:54;;;;;;;20.70;15.53;;;;;;;;;;4994023;28;20275;-85
2022/09/11 04:46:22;;;;;;;18.17;14.63;;;;;;;;;;4994923;28;20274;-86
2022/09/11 04:48:51;;;;;;;20.70;15.90;;;;;;;;;;4994346;28;20219;-86
2022/09/11 04:51:21;;;;;;;19.17;14.67;;;;;;;;;;4994270;28;20303;-86
2022/09/11 04:53:48;;;;;;;19.57;15.03;;;;;;;;;;4994285;28;20215;-86
2022/09/11 04:56:15;;;;;;;19.60;14.93;;;;;;;;;;4994628;28;20235;-86
2022/09/11 04:58:42;;;;;;;17.87;15.07;;;;;;;;;;5002967;28;20200;-86
2022/09/11 05:01:10;;;;;;;17.73;14.30;;;;;;;;;;4996186;28;20700;-86
2022/09/11 05:03:37;;;;;;;21.00;14.60;;;;;;;;;;4996178;28;20236;-87
2022/09/11 05:06:05;;;;;;;18.53;14.93;;;;;;;;;;4994758;28;20234;-86
2022/09/11 05:08:35;;;;;;;18.00;14.87;;;;;;;;;;4993683;28;20211;-86
2022/09/11 05:11:04;;;;;;;19.27;16.50;;;;;;;;;;4993906;28;20196;-86
2022/09/11 05:13:32;;;;;;;18.23;14.63;;;;;;;;;;4994609;28;20204;-87
2022/09/11 05:16:02;;;;;;;18.67;15.00;;;;;;;;;;4993376;28;20286;-86
2022/09/11 05:18:29;;;;;;;20.03;15.13;;;;;;;;;;4994449;28;20208;-86
2022/09/11 05:21:00;;;;;;;19.37;13.93;;;;;;;;;;5001635;28;20730;-86
2022/09/11 05:23:27;;;;;;;18.40;15.00;;;;;;;;;;4995368;28;20583;-86
2022/09/11 05:25:58;;;;;;;20.27;15.50;;;;;;;;;;4993795;28;20243;-86
2022/09/11 05:28:26;;;;;;;19.60;15.67;;;;;;;;;;4994403;28;20255;-86
2022/09/11 05:30:53;;;;;;;21.40;16.37;;;;;;;;;;4995451;28;20235;-86
2022/09/11 05:33:22;;;;;;;18.40;14.90;;;;;;;;;;4994587;28;20217;-84
2022/09/11 05:35:49;;;;;;;19.70;15.43;;;;;;;;;;4994110;28;20239;-87
2022/09/11 05:38:16;;;;;;;17.00;14.97;;;;;;;;;;4994617;28;20215;-86
2022/09/11 05:40:44;;;;;;;21.00;14.87;;;;;;;;;;4994222;28;20240;-83
2022/09/11 05:43:14;;;;;;;19.63;16.20;;;;;;;;;;4998233;28;20612;-86
2022/09/11 05:45:41;;;;;;;18.87;15.30;;;;;;;;;;4997573;28;20239;-86
2022/09/11 05:48:09;;;;;;;21.63;17.37;;;;;;;;;;5002929;28;20200;-86
2022/09/11 05:50:36;;;;;;;22.27;17.10;;;;;;;;;;4999106;28;20242;-87
2022/09/11 05:53:04;;;;;;;22.97;16.73;;;;;;;;;;4998356;28;20307;-86
2022/09/11 05:55:33;;;;;;;22.50;17.10;;;;;;;;;;4997560;28;20370;-86
2022/09/11 05:58:00;;;;;;;22.27;17.87;;;;;;;;;;4996997;28;20208;-88
2022/09/11 06:00:30;;;;;;;25.80;18.83;;;;;;;;;;4977678;28;20239;-87
2022/09/11 06:02:57;;;;;;;22.70;17.83;;;;;;;;;;4977697;28;20205;-87
2022/09/11 06:05:24;;;;;;;22.87;17.03;;;;;;;;;;4977276;28;20244;-87
2022/09/11 06:07:51;;;;;;;23.37;18.03;;;;;;;;;;4993282;28;20204;-87
2022/09/11 06:10:18;;;;;;;23.70;18.80;;;;;;;;;;4996357;28;20244;-87
2022/09/11 06:12:45;;;;;;;26.57;18.97;;;;;;;;;;4996415;28;20219;-88
2022/09/11 06:15:12;;;;;;;25.83;18.33;;;;;;;;;;4999382;28;20228;-88
2022/09/11 06:17:41;;;;;;;23.03;19.00;;;;;;;;;;4997036;28;20219;-86
2022/09/11 06:20:09;;;;;;;27.27;20.43;;;;;;;;;;4996241;28;20228;-87
2022/09/11 06:22:36;;;;;;;25.07;19.73;;;;;;;;;;4997063;28;20188;-87
2022/09/11 06:25:04;;;;;;;24.30;19.60;;;;;;;;;;4996018;28;20249;-85
2022/09/11 06:27:31;;;;;;;28.90;19.07;;;;;;;;;;4996979;28;20206;-87
2022/09/11 06:29:58;;;;;;;24.73;19.37;;;;;;;;;;4996041;28;20316;-86
2022/09/11 06:32:25;;;;;;;27.17;19.77;;;;;;;;;;4976764;28;20209;-87
2022/09/11 06:34:53;;;;;;;26.90;19.90;;;;;;;;;;4989014;28;20240;-87
2022/09/11 06:37:21;;;;;;;25.47;19.80;;;;;;;;;;4996559;28;20247;-87
2022/09/11 06:39:48;;;;;;;26.90;20.13;;;;;;;;;;4995832;28;20236;-87
2022/09/11 06:42:15;;;;;;;28.20;20.50;;;;;;;;;;4996528;28;20212;-87
2022/09/11 06:44:42;;;;;;;30.63;21.37;;;;;;;;;;4995977;28;20278;-88
2022/09/11 06:47:12;;;;;;;27.97;21.13;;;;;;;;;;4996066;28;20288;-87
2022/09/11 06:49:39;;;;;;;28.13;19.87;;;;;;;;;;4993396;28;20286;-87
2022/09/11 06:52:08;;;;;;;30.87;21.67;;;;;;;;;;5002816;28;20200;-85
2022/09/11 06:54:35;;;;;;;26.53;20.83;;;;;;;;;;5007931;28;20228;-86
2022/09/11 06:57:02;;;;;;;28.53;21.80;;;;;;;;;;5009187;28;20694;-87
2022/09/11 06:59:30;;;;;;;25.27;20.67;;;;;;;;;;5005851;28;20254;-86
2022/09/11 07:01:59;;;;;;;28.23;21.10;;;;;;;;;;4995386;28;20207;-84
2022/09/11 07:04:27;;;;;;;26.63;21.37;;;;;;;;;;4995197;28;20228;-86
2022/09/11 07:06:54;;;;;;;28.50;19.87;;;;;;;;;;4995597;28;20543;-85
2022/09/11 07:09:22;;;;;;;28.63;20.50;;;;;;;;;;4995423;28;20232;-85
2022/09/11 07:11:49;;;;;;;27.37;21.83;;;;;;;;;;4976961;28;20209;-86
2022/09/11 07:14:20;;;;;;;26.03;20.50;;;;;;;;;;4975728;28;20243;-86
2022/09/11 07:16:49;;;;;;;27.17;20.50;;;;;;;;;;4984419;28;20231;-86
2022/09/11 07:19:17;;;;;;;24.93;20.03;;;;;;;;;;4995105;28;20699;-86
2022/09/11 07:21:44;;;;;;;23.53;17.63;;;;;;;;;;4995517;28;20228;-86
2022/09/11 07:24:12;;;;;;;26.57;20.03;;;;;;;;;;4995109;28;20238;-85
2022/09/11 07:26:40;;;;;;;21.43;18.20;;;;;;;;;;4995520;28;20235;-86
2022/09/11 07:29:07;;;;;;;23.67;18.47;;;;;;;;;;4991750;28;20278;-87
2022/09/11 07:31:34;;;;;;;25.37;19.90;;;;;;;;;;4980757;28;20201;-87
2022/09/11 07:34:02;;;;;;;24.30;19.77;;;;;;;;;;4994590;28;20235;-87
2022/09/11 07:36:30;;;;;;;26.27;18.43;;;;;;;;;;4994853;28;20262;-87
2022/09/11 07:38:58;;;;;;;20.03;16.53;;;;;;;;;;4994420;28;20314;-85
2022/09/11 07:41:25;;;;;;;20.67;17.60;;;;;;;;;;4992210;28;20602;-85
2022/09/11 07:43:54;;;;;;;20.50;16.57;;;;;;;;;;4987959;28;20236;-86
2022/09/11 07:46:23;;;;;;;18.43;15.97;;;;;;;;;;4994731;28;20704;-85
2022/09/11 07:48:50;;;;;;;20.83;15.77;;;;;;;;;;4994428;28;20204;-86
2022/09/11 07:51:18;;;;;;;19.37;16.03;;;;;;;;;;4994437;28;20291;-87
2022/09/11 07:53:46;;;;;;;19.47;15.67;;;;;;;;;;4983833;28;20251;-87
2022/09/11 07:56:14;;;;;;;17.17;15.33;;;;;;;;;;4993973;28;20216;-86
2022/09/11 07:58:41;;;;;;;19.50;14.63;;;;;;;;;;4993516;28;20220;-85
2022/09/11 08:01:11;;;;;;;18.43;14.07;;;;;;;;;;4993721;28;20697;-85
2022/09/11 08:03:38;;;;;;;18.23;13.55;;;;;;;;;;4993703;28;20199;-87
2022/09/11 08:06:06;;;;;;;18.15;13.98;;;;;;;;;;4993657;28;20220;-86
2022/09/11 08:08:34;;;;;;;17.13;13.95;;;;;;;;;;4990854;28;20536;-85
2022/09/11 08:11:02;;;;;;;17.55;14.02;;;;;;;;;;4993477;28;20230;-87
2022/09/11 08:13:29;;;;;;;16.25;14.13;;;;;;;;;;4986872;28;20200;-87
2022/09/11 08:15:57;;;;;;;20.30;15.17;;;;;;;;;;4992357;28;20228;-86
2022/09/11 08:18:25;;;;;;;16.08;13.35;;;;;;;;;;5002043;28;20215;-86
2022/09/11 08:20:53;;;;;;;21.00;13.77;;;;;;;;;;4984679;28;20240;-87
2022/09/11 08:23:21;;;;;;;16.65;12.85;;;;;;;;;;4992976;28;20204;-88
2022/09/11 08:25:49;;;;;;;18.02;13.70;;;;;;;;;;4997871;28;20264;-86
2022/09/11 08:28:16;;;;;;;17.17;12.68;;;;;;;;;;4993184;28;20232;-87
2022/09/11 08:30:45;;;;;;;14.68;12.20;;;;;;;;;;4997686;28;20294;-82
2022/09/11 08:33:12;;;;;;;16.52;12.15;;;;;;;;;;4996207;28;20287;-86
2022/09/11 08:35:41;;;;;;;15.27;12.73;;;;;;;;;;4993286;28;20236;-85
2022/09/11 08:38:08;;;;;;;15.02;11.85;;;;;;;;;;4994196;28;20623;-86
2022/09/11 08:40:37;;;;;;;16.63;13.00;;;;;;;;;;4993338;28;20267;-86
2022/09/11 08:43:05;;;;;;;14.82;13.13;;;;;;;;;;4993586;28;20295;-86
2022/09/11 08:45:35;;;;;;;17.73;13.20;;;;;;;;;;4978320;28;20291;-86
2022/09/11 08:48:02;;;;;;;18.00;13.77;;;;;;;;;;4990234;28;20295;-84
2022/09/11 08:50:32;;;;;;;17.33;13.30;;;;;;;;;;4991494;28;20236;-86
2022/09/11 08:53:02;;;;;;;18.00;13.30;;;;;;;;;;4986835;28;20192;-87
2022/09/11 08:55:33;;;;;;;16.15;13.30;;;;;;;;;;4983166;28;20345;-87
2022/09/11 08:58:05;;;;;;;16.02;13.82;;;;;;;;;;4993447;28;20230;-87
2022/09/11 09:00:33;;;;;;;16.20;13.95;;;;;;;;;;4991367;28;20232;-88
2022/09/11 09:03:09;;;;;;;16.25;13.15;;;;;;;;;;4992881;28;20255;-85
2022/09/11 09:05:40;;;;;;;15.90;12.85;;;;;;;;;;4992601;28;20281;-86
2022/09/11 09:08:16;;;;;;;15.23;11.98;;;;;;;;;;4992981;28;20227;-86
2022/09/11 09:10:47;;;;;;;13.93;12.13;;;;;;;;;;4991490;28;20719;-86
2022/09/11 09:13:23;;;;;;;18.23;12.65;;;;;;;;;;4988517;28;20208;-84
2022/09/11 09:15:53;;;;;;;16.55;12.20;;;;;;;;;;4997732;28;20712;-83
2022/09/11 09:18:25;;;;;;;14.68;11.02;;;;;;;;;;4995736;28;20215;-83
2022/09/11 09:21:00;;;;;;;14.88;11.85;;;;;;;;;;4997631;28;20232;-83
2022/09/11 09:23:29;;;;;;;13.27;10.82;;;;;;;;;;4999206;28;20676;-85
2022/09/11 09:25:57;;;;;;;13.80;11.20;;;;;;;;;;4998917;28;20237;-81
2022/09/11 09:28:25;;;;;;;12.93;11.48;;;;;;;;;;4997736;28;20208;-82
2022/09/11 09:30:54;;;;;;;13.10;10.90;;;;;;;;;;4995661;28;20227;-85
2022/09/11 09:33:29;;;;;;;12.52;11.10;;;;;;;;;;4994173;28;20204;-84
2022/09/11 09:35:57;;;;;;;12.63;10.63;;;;;;;;;;4984639;28;20428;-85
2022/09/11 09:38:27;;;;;;;12.82;10.20;;;;;;;;;;4993436;28;20211;-84
2022/09/11 09:41:04;;;;;;;12.23;10.40;;;;;;;;;;4992680;28;20236;-85
2022/09/11 09:43:35;;;;;;;15.00;10.02;;;;;;;;;;4995903;28;20527;-85
2022/09/11 09:46:06;;;;;;;11.38;10.27;;;;;;;;;;4993083;28;20708;-85
2022/09/11 09:48:34;;;;;;;12.68;10.70;;;;;;;;;;4992646;28;20203;-84
2022/09/11 09:51:02;;;;;;;11.35;9.20;;;;;;;;;;4992965;28;20711;-85
2022/09/11 09:53:32;;;;;;;11.40;9.20;;;;;;;;;;4993018;28;20218;-86
2022/09/11 09:56:01;;;;;;;12.68;10.60;;;;;;;;;;4993192;28;20243;-85
2022/09/11 09:58:32;;;;;;;13.23;11.82;;;;;;;;;;4982987;28;20200;-85
2022/09/11 10:00:59;;;;;;;11.30;10.15;;;;;;;;;;4966542;28;20229;-80
2022/09/11 10:03:26;;;;;;;11.75;10.55;;;;;;;;;;4957837;28;20225;-81
2022/09/11 10:05:54;;;;;;;12.40;9.60;;;;;;;;;;4992887;28;20322;-81
2022/09/11 10:08:26;;;;;;;11.40;9.00;;;;;;;;;;4994911;28;20204;-82
2022/09/11 10:10:56;;;;;;;11.88;10.27;;;;;;;;;;4994079;28;20239;-80
2022/09/11 10:13:27;;;;;;;10.38;9.27;;;;;;;;;;4994353;28;20675;-81
2022/09/11 10:15:55;;;;;;;11.60;8.82;;;;;;;;;;4993993;28;20294;-81
2022/09/11 10:18:24;;;;;;;13.32;10.40;;;;;;;;;;4994274;28;20201;-81
2022/09/11 10:20:51;;;;;;;11.80;9.20;;;;;;;;;;4994894;28;20392;-81
2022/09/11 10:23:25;;;;;;;9.80;8.80;;;;;;;;;;4994877;28;20224;-82
2022/09/11 10:25:53;;;;;;;9.27;8.30;;;;;;;;;;4993978;28;20723;-82
2022/09/11 10:28:23;;;;;;;9.55;8.55;;;;;;;;;;4996338;28;20208;-82
2022/09/11 10:30:58;;;;;;;9.80;8.80;;;;;;;;;;4985462;28;20232;-82
2022/09/11 10:33:27;;;;;;;9.95;8.18;;;;;;;;;;4998984;28;20199;-81
2022/09/11 10:35:55;;;;;;;10.15;8.07;;;;;;;;;;4997979;28;20603;-82
2022/09/11 10:38:25;;;;;;;8.77;7.47;;;;;;;;;;4998711;28;20219;-82
2022/09/11 10:40:58;;;;;;;8.48;7.53;;;;;;;;;;4997770;28;20236;-82
2022/09/11 10:43:26;;;;;;;8.75;7.55;;;;;;;;;;4999151;28;20201;-81
2022/09/11 10:46:05;;;;;;;9.68;7.85;;;;;;;;;;4997811;28;20708;-83
2022/09/11 10:48:32;;;;;;;9.68;7.18;;;;;;;;;;4978017;28;20810;-77
2022/09/11 10:51:08;;;;;;;8.07;7.20;;;;;;;;;;4975650;28;20629;-78
2022/09/11 10:53:40;;;;;;;10.43;8.60;;;;;;;;;;4985574;28;20196;-78
2022/09/11 10:56:08;;;;;;;10.70;9.15;;;;;;;;;;4982153;28;20234;-77
2022/09/11 10:58:38;;;;;;;11.38;8.90;;;;;;;;;;4994866;28;20603;-78
2022/09/11 11:01:07;;;;;;;10.63;9.32;;;;;;;;;;4995181;28;20207;-81
2022/09/11 11:03:34;;;;;;;9.52;8.52;;;;;;;;;;4995625;28;20571;-85
2022/09/11 11:06:06;;;;;;;10.05;8.40;;;;;;;;;;4995761;28;20232;-84
2022/09/11 11:08:58;;;;;;;8.77;7.93;;;;;;;;;;4995404;28;20688;-86
2022/09/11 11:11:32;;;;;;;9.88;8.20;;;;;;;;;;4995685;28;20192;-85
2022/09/11 11:14:06;;;;;;;11.45;7.68;;;;;;;;;;4996287;28;20290;-85
2022/09/11 11:16:44;;;;;;;9.77;8.60;;;;;;;;;;4977050;28;20243;-79
2022/09/11 11:19:28;;;;;;;9.85;7.90;;;;;;;;;;4975233;28;20758;-79
2022/09/11 11:21:58;;;;;;;10.48;8.63;;;;;;;;;;4975346;28;20213;-79
2022/09/11 11:24:32;;;;;;;10.73;8.60;;;;;;;;;;4975077;28;20233;-79
2022/09/11 11:27:05;;;;;;;8.77;7.97;;;;;;;;;;4975868;28;20193;-79
2022/09/11 11:29:42;;;;;;;8.60;7.68;;;;;;;;;;4977856;28;20263;-79
2022/09/11 11:32:16;;;;;;;8.60;7.72;;;;;;;;;;4996108;28;20204;-76
2022/09/11 11:34:55;;;;;;;9.77;7.70;;;;;;;;;;4994239;28;20712;-79
2022/09/11 11:37:26;;;;;;;7.70;7.00;;;;;;;;;;4994764;28;20198;-79
2022/09/11 11:39:56;;;;;;;9.15;7.60;;;;;;;;;;4994360;28;20235;-80
2022/09/11 11:42:25;;;;;;;9.38;8.02;;;;;;;;;;4995149;28;20231;-80
2022/09/11 11:44:54;;;;;;;8.38;7.53;;;;;;;;;;4995231;28;20294;-79
2022/09/11 11:47:25;;;;;;;8.80;6.97;;;;;;;;;;4995510;28;20212;-80
2022/09/11 11:49:55;;;;;;;10.32;7.28;;;;;;;;;;4995068;28;20700;-79
2022/09/11 11:52:27;;;;;;;9.13;8.23;;;;;;;;;;4993393;28;20657;-80
2022/09/11 11:55:00;;;;;;;11.52;7.80;;;;;;;;;;4993725;28;21707;-80
2022/09/11 11:57:30;;;;;;;8.60;7.28;;;;;;;;;;4995600;28;20275;-79
2022/09/11 12:00:03;;;;;;;8.15;6.93;;;;;;;;;;4994934;28;20243;-80
2022/09/11 12:02:34;;;;;;;10.80;7.43;;;;;;;;;;4992652;28;20213;-79
2022/09/11 12:05:03;;;;;;;8.23;7.38;;;;;;;;;;4985696;28;20247;-79
2022/09/11 12:07:31;;;;;;;9.30;8.25;;;;;;;;;;4991443;28;20200;-79
2022/09/11 12:10:00;;;;;;;8.52;7.47;;;;;;;;;;4994039;28;20268;-79
2022/09/11 12:12:28;;;;;;;8.25;7.18;;;;;;;;;;4994348;28;20220;-78
2022/09/11 12:14:57;;;;;;;9.25;7.68;;;;;;;;;;4993678;28;20228;-79
2022/09/11 12:17:26;;;;;;;10.63;8.32;;;;;;;;;;4992648;28;20290;-80
2022/09/11 12:20:12;;;;;;;9.15;8.20;;;;;;;;;;4987451;28;20236;-79
2022/09/11 12:22:42;;;;;;;11.40;8.60;;;;;;;;;;4993238;28;20220;-80
2022/09/11 12:25:23;;;;;;;10.02;8.48;;;;;;;;;;4993910;28;20244;-80
2022/09/11 12:27:52;;;;;;;10.25;8.50;;;;;;;;;;4994723;28;20200;-80
2022/09/11 12:30:24;;;;;;;9.10;8.05;;;;;;;;;;5008946;28;20235;-79
2022/09/11 12:32:51;;;;;;;9.82;8.48;;;;;;;;;;5014804;28;20210;-79
2022/09/11 12:35:42;;;;;;;9.57;8.55;;;;;;;;;;5014249;28;20616;-79
2022/09/11 12:38:18;;;;;;;9.95;8.65;;;;;;;;;;4994180;28;20551;-80
2022/09/11 12:40:50;;;;;;;9.80;8.77;;;;;;;;;;5001832;28;20227;-80
2022/09/11 12:43:31;;;;;;;9.77;8.85;;;;;;;;;;4994068;28;20304;-80
2022/09/11 12:45:58;;;;;;;11.55;9.13;;;;;;;;;;4993228;28;20220;-79
2022/09/11 12:48:32;;;;;;;13.35;9.75;;;;;;;;;;4993238;28;20200;-80
2022/09/11 12:51:00;;;;;;;13.75;10.10;;;;;;;;;;4976404;28;20684;-80
2022/09/11 12:53:30;;;;;;;11.50;9.15;;;;;;;;;;4993590;28;20204;-80
2022/09/11 12:55:58;;;;;;;14.50;9.50;;;;;;;;;;4983570;28;20236;-79
2022/09/11 12:58:37;;;;;;;9.95;8.93;;;;;;;;;;4993747;28;20208;-82
2022/09/11 13:01:14;;;;;;;9.95;8.18;;;;;;;;;;4994827;28;20219;-82
2022/09/11 13:03:48;;;;;;;10.50;8.45;;;;;;;;;;4994853;28;20274;-81
2022/09/11 13:06:15;;;;;;;10.35;8.77;;;;;;;;;;4994285;28;20228;-80
2022/09/11 13:08:48;;;;;;;10.65;8.30;;;;;;;;;;4994492;28;20571;-81
2022/09/11 13:11:36;;;;;;;10.10;8.75;;;;;;;;;;4995121;28;20199;-79
2022/09/11 13:14:05;;;;;;;10.93;8.85;;;;;;;;;;4975967;28;20243;-80
2022/09/11 13:16:33;;;;;;;9.73;8.70;;;;;;;;;;4974958;28;20228;-79
2022/09/11 13:19:02;;;;;;;9.63;8.00;;;;;;;;;;4975566;28;20236;-82
2022/09/11 13:21:36;;;;;;;8.95;8.02;;;;;;;;;;4979050;28;20318;-81
2022/09/11 13:24:21;;;;;;;10.85;7.93;;;;;;;;;;4980422;28;20228;-79
2022/09/11 13:26:54;;;;;;;9.73;8.35;;;;;;;;;;4995118;28;20243;-84
2022/09/11 13:29:21;;;;;;;9.18;7.53;;;;;;;;;;4984446;28;20232;-79
2022/09/11 13:31:48;;;;;;;7.82;7.00;;;;;;;;;;4976815;28;20227;-80
2022/09/11 13:34:17;;;;;;;8.27;6.50;;;;;;;;;;4976304;28;20316;-79
2022/09/11 13:36:46;;;;;;;6.88;6.18;;;;;;;;;;4975754;28;20245;-83
2022/09/11 13:39:15;;;;;;;7.30;6.43;;;;;;;;;;4975441;28;20236;-81
2022/09/11 13:41:43;;;;;;;7.90;6.60;;;;;;;;;;4974994;28;20232;-79
2022/09/11 13:44:11;;;;;;;7.45;6.68;;;;;;;;;;4975376;28;20256;-80
2022/09/11 13:46:49;;;;;;;6.90;5.85;;;;;;;;;;4975463;28;20220;-80
2022/09/11 13:49:26;;;;;;;6.38;5.55;;;;;;;;;;4975164;28;20228;-82
2022/09/11 13:51:54;;;;;;;6.72;5.35;;;;;;;;;;4976101;28;20204;-79
2022/09/11 13:54:25;;;;;;;6.68;6.00;;;;;;;;;;4975151;28;20235;-77
2022/09/11 13:57:06;;;;;;;7.20;6.05;;;;;;;;;;4975699;28;20228;-82
2022/09/11 13:59:43;;;;;;;7.38;6.03;;;;;;;;;;4974994;28;20228;-80
2022/09/11 14:02:29;;;;;;;10.35;5.70;;;;;;;;;;4976523;28;20311;-78
2022/09/11 14:05:00;;;;;;;6.97;6.07;;;;;;;;;;4978317;28;20616;-80
2022/09/11 14:07:28;;;;;;;6.50;5.90;;;;;;;;;;4989433;28;20192;-81
2022/09/11 14:10:00;;;;;;;6.22;5.63;;;;;;;;;;4999278;28;20235;-82
2022/09/11 14:12:28;;;;;;;6.10;5.57;;;;;;;;;;4999635;28;20557;-82
2022/09/11 14:14:57;;;;;;;6.00;5.40;;;;;;;;;;4999258;28;20244;-81
2022/09/11 14:17:25;;;;;;;6.35;5.75;;;;;;;;;;5000144;28;20259;-81
2022/09/11 14:19:53;;;;;;;6.13;5.50;;;;;;;;;;4999386;28;20256;-82
2022/09/11 14:22:24;;;;;;;6.35;5.72;;;;;;;;;;4999287;28;20223;-82
2022/09/11 14:24:57;;;;;;;8.20;5.30;;;;;;;;;;4998805;28;20244;-81
2022/09/11 14:27:36;;;;;;;5.93;5.32;;;;;;;;;;4999696;28;20208;-82
2022/09/11 14:30:03;;;;;;;6.75;5.22;;;;;;;;;;4999456;28;20769;-82
2022/09/11 14:32:31;;;;;;;5.18;4.78;;;;;;;;;;4999465;28;20584;-82
2022/09/11 14:34:58;;;;;;;5.68;4.88;;;;;;;;;;4996488;28;20628;-83
2022/09/11 14:37:26;;;;;;;6.70;4.68;;;;;;;;;;4997415;28;20200;-82
2022/09/11 14:39:55;;;;;;;5.55;5.05;;;;;;;;;;4997232;28;20239;-83
2022/09/11 14:42:24;;;;;;;5.60;4.93;;;;;;;;;;4995751;28;20223;-82